Time;durP1;ratioP1;P1;durP2;ratioP2;P2;SDS_P1;SDS_P2;PMS_P1;PMS_P2;Temp;Humidity;BMP_temperature;BMP_pressure;BME280_temperature;BME280_humidity;BME280_pressure;Samples;Min_cycle;Max_cycle;Signal;HPM_P1;HPM_P2
2021/01/13 00:00:16;;;;;;;1999.90;999.90;;;;;;;;;;5064999;28;20073;-81
2021/01/13 00:02:42;;;;;;;1999.90;999.90;;;;;;;;;;5067693;28;20062;-81
2021/01/13 00:05:07;;;;;;;1999.90;999.90;;;;;;;;;;5061478;28;20546;-81
2021/01/13 00:07:33;;;;;;;1999.90;999.90;;;;;;;;;;5048955;28;20047;-82
2021/01/13 00:09:58;;;;;;;1999.90;999.90;;;;;;;;;;5039068;28;20063;-81
2021/01/13 00:12:25;;;;;;;1999.90;999.90;;;;;;;;;;5047462;28;20646;-81
2021/01/13 00:14:51;;;;;;;1999.90;999.90;;;;;;;;;;5048764;28;20017;-81
2021/01/13 00:17:16;;;;;;;1999.90;999.90;;;;;;;;;;5050046;28;20036;-81
2021/01/13 00:19:42;;;;;;;1999.90;999.90;;;;;;;;;;5048141;28;20127;-82
2021/01/13 00:22:07;;;;;;;1999.90;999.90;;;;;;;;;;5048274;28;20025;-81
2021/01/13 00:24:33;;;;;;;1999.90;999.90;;;;;;;;;;5048602;28;20492;-81
2021/01/13 00:27:00;;;;;;;1999.90;999.90;;;;;;;;;;5047816;28;20033;-82
2021/01/13 00:29:25;;;;;;;1999.90;999.90;;;;;;;;;;5042441;28;20032;-81
2021/01/13 00:31:54;;;;;;;1999.90;999.90;;;;;;;;;;5043274;28;20029;-82
2021/01/13 00:34:19;;;;;;;1999.90;999.90;;;;;;;;;;5047791;28;20036;-81
2021/01/13 00:36:44;;;;;;;1999.90;999.90;;;;;;;;;;5043636;28;20026;-82
2021/01/13 00:39:10;;;;;;;1999.90;999.90;;;;;;;;;;5049629;28;20427;-81
2021/01/13 00:41:39;;;;;;;1999.90;999.90;;;;;;;;;;5042363;28;20626;-81
2021/01/13 00:44:04;;;;;;;1999.90;999.90;;;;;;;;;;5049519;28;20025;-81
2021/01/13 00:46:37;;;;;;;1999.90;999.90;;;;;;;;;;5049584;28;20574;-81
2021/01/13 00:49:03;;;;;;;1999.90;999.90;;;;;;;;;;5044215;28;20552;-81
2021/01/13 00:51:31;;;;;;;1999.90;999.90;;;;;;;;;;5042051;28;20096;-81
2021/01/13 00:53:57;;;;;;;1999.90;999.90;;;;;;;;;;5027697;28;20025;-81
2021/01/13 00:56:22;;;;;;;1999.90;999.90;;;;;;;;;;5043929;28;20533;-81
2021/01/13 00:58:48;;;;;;;1999.90;999.90;;;;;;;;;;5047582;28;20109;-81
2021/01/13 01:01:13;;;;;;;1999.90;999.90;;;;;;;;;;5044807;28;20025;-81
2021/01/13 01:03:39;;;;;;;1999.90;999.90;;;;;;;;;;5046672;28;20051;-81
2021/01/13 01:06:04;;;;;;;1999.90;999.90;;;;;;;;;;5038352;28;20029;-81
2021/01/13 01:08:30;;;;;;;1999.90;999.90;;;;;;;;;;5043116;28;20100;-81
2021/01/13 01:10:56;;;;;;;1999.90;999.90;;;;;;;;;;5048957;28;20029;-81
2021/01/13 01:13:21;;;;;;;1999.90;999.90;;;;;;;;;;5045245;28;20041;-82
2021/01/13 01:15:47;;;;;;;1999.90;999.90;;;;;;;;;;5046753;28;20024;-82
2021/01/13 01:18:12;;;;;;;1999.90;999.90;;;;;;;;;;5044858;28;20044;-81
2021/01/13 01:20:38;;;;;;;1999.90;999.90;;;;;;;;;;5040863;28;20503;-81
2021/01/13 01:23:03;;;;;;;1999.90;999.90;;;;;;;;;;5044221;28;20032;-81
2021/01/13 01:25:29;;;;;;;1999.90;999.90;;;;;;;;;;5038561;28;20021;-81
2021/01/13 01:27:55;;;;;;;1999.90;999.90;;;;;;;;;;5042372;28;20142;-81
2021/01/13 01:30:21;;;;;;;1999.90;999.90;;;;;;;;;;5043244;28;20385;-81
2021/01/13 01:32:47;;;;;;;1999.90;999.90;;;;;;;;;;5041385;28;20029;-81
2021/01/13 01:35:13;;;;;;;1999.90;999.90;;;;;;;;;;5044930;28;20032;-81
2021/01/13 01:37:39;;;;;;;1999.90;999.90;;;;;;;;;;5046964;28;20033;-82
2021/01/13 01:40:05;;;;;;;1999.90;999.90;;;;;;;;;;5047602;28;20055;-82
2021/01/13 01:42:31;;;;;;;1999.90;999.90;;;;;;;;;;5040450;28;20061;-82
2021/01/13 01:44:56;;;;;;;1999.90;999.90;;;;;;;;;;5038265;28;20121;-82
2021/01/13 01:47:39;;;;;;;1999.90;999.90;;;;;;;;;;5041503;28;20111;-81
2021/01/13 01:50:05;;;;;;;1999.90;999.90;;;;;;;;;;5007918;28;20489;-81
2021/01/13 01:52:30;;;;;;;1999.90;999.90;;;;;;;;;;5037728;28;20013;-81
2021/01/13 01:55:01;;;;;;;1999.90;999.90;;;;;;;;;;5038358;28;20045;-81
2021/01/13 01:57:32;;;;;;;1999.90;999.90;;;;;;;;;;5047574;28;20112;-81
2021/01/13 02:00:01;;;;;;;1999.90;999.90;;;;;;;;;;5037648;28;20034;-81
2021/01/13 02:02:35;;;;;;;1999.90;999.90;;;;;;;;;;5033879;28;20358;-82
2021/01/13 02:05:01;;;;;;;1999.90;999.90;;;;;;;;;;5038585;28;20029;-81
2021/01/13 02:07:30;;;;;;;1999.90;999.90;;;;;;;;;;5044281;28;20056;-82
2021/01/13 02:09:56;;;;;;;1999.90;999.90;;;;;;;;;;5041762;28;20421;-81
2021/01/13 02:12:26;;;;;;;1999.90;999.90;;;;;;;;;;5044445;28;20100;-81
2021/01/13 02:14:52;;;;;;;1999.90;999.90;;;;;;;;;;5046763;28;20044;-82
2021/01/13 02:17:20;;;;;;;1999.90;999.90;;;;;;;;;;5044322;28;20021;-81
2021/01/13 02:19:49;;;;;;;1999.90;999.90;;;;;;;;;;5028920;28;20033;-81
2021/01/13 02:22:14;;;;;;;1999.90;999.90;;;;;;;;;;5040054;28;20022;-81
2021/01/13 02:25:15;;;;;;;1999.90;999.90;;;;;;;;;;5042141;28;20021;-81
2021/01/13 02:27:52;;;;;;;1999.90;999.90;;;;;;;;;;4988993;28;20038;-81
2021/01/13 02:30:20;;;;;;;1999.90;999.90;;;;;;;;;;5040201;28;20044;-81
2021/01/13 02:32:47;;;;;;;1999.90;999.90;;;;;;;;;;5046919;28;20014;-81
2021/01/13 02:35:17;;;;;;;1999.90;999.90;;;;;;;;;;5039329;28;20535;-81
2021/01/13 02:38:01;;;;;;;1999.90;999.90;;;;;;;;;;5041640;28;20477;-82
2021/01/13 02:40:28;;;;;;;1999.90;999.90;;;;;;;;;;5036463;28;20029;-81
2021/01/13 02:42:59;;;;;;;1999.90;999.90;;;;;;;;;;5044555;28;20431;-81
2021/01/13 02:45:26;;;;;;;1999.90;999.90;;;;;;;;;;5038673;28;20072;-80
2021/01/13 02:47:57;;;;;;;1999.90;999.90;;;;;;;;;;5039048;28;20078;-81
2021/01/13 02:50:24;;;;;;;1999.90;999.90;;;;;;;;;;5039735;28;20126;-81
2021/01/13 02:53:07;;;;;;;1999.90;999.90;;;;;;;;;;5035690;28;20052;-81
2021/01/13 02:55:39;;;;;;;1999.90;999.90;;;;;;;;;;5044647;28;20048;-82
2021/01/13 02:58:05;;;;;;;1999.90;999.90;;;;;;;;;;5046276;28;20076;-81
2021/01/13 03:00:30;;;;;;;1999.90;999.90;;;;;;;;;;5022583;28;20017;-82
2021/01/13 03:03:00;;;;;;;1999.90;999.90;;;;;;;;;;5041509;28;20082;-82
2021/01/13 03:05:26;;;;;;;1999.90;999.90;;;;;;;;;;5045747;28;20068;-81
2021/01/13 03:07:55;;;;;;;1999.90;999.90;;;;;;;;;;5046378;28;20555;-82
2021/01/13 03:10:24;;;;;;;1999.90;999.90;;;;;;;;;;5042689;28;20058;-81
2021/01/13 03:12:54;;;;;;;1999.90;999.90;;;;;;;;;;5041427;28;20038;-82
2021/01/13 03:15:19;;;;;;;1999.90;999.90;;;;;;;;;;5042410;28;20017;-81
2021/01/13 03:17:51;;;;;;;1999.90;999.90;;;;;;;;;;5040599;28;20051;-82
2021/01/13 03:20:26;;;;;;;1999.90;999.90;;;;;;;;;;5050776;28;20020;-81
2021/01/13 03:23:10;;;;;;;1999.90;999.90;;;;;;;;;;5049366;28;20041;-81
2021/01/13 03:25:37;;;;;;;1999.90;999.90;;;;;;;;;;5050360;28;20118;-81
2021/01/13 03:28:05;;;;;;;1999.90;999.90;;;;;;;;;;5047616;28;20039;-81
2021/01/13 03:30:31;;;;;;;1999.90;999.90;;;;;;;;;;5039819;28;20021;-81
2021/01/13 03:33:17;;;;;;;1999.90;999.90;;;;;;;;;;5045250;28;20028;-81
2021/01/13 03:35:44;;;;;;;1999.90;999.90;;;;;;;;;;5014177;28;20041;-81
2021/01/13 03:38:17;;;;;;;1999.90;999.90;;;;;;;;;;5046401;28;20104;-81
2021/01/13 03:40:44;;;;;;;1999.90;999.90;;;;;;;;;;5045434;28;20116;-81
2021/01/13 03:43:15;;;;;;;1999.90;999.90;;;;;;;;;;5050639;28;20024;-81
2021/01/13 03:45:40;;;;;;;1999.90;999.90;;;;;;;;;;5039804;28;20354;-81
2021/01/13 03:48:24;;;;;;;1999.90;999.90;;;;;;;;;;5044979;28;20029;-81
2021/01/13 03:50:51;;;;;;;1999.90;999.90;;;;;;;;;;5047938;28;20033;-81
2021/01/13 03:53:16;;;;;;;1999.90;999.90;;;;;;;;;;5041998;28;20044;-81
2021/01/13 03:55:42;;;;;;;1999.90;999.90;;;;;;;;;;5037389;28;20624;-82
2021/01/13 03:58:08;;;;;;;1999.90;999.90;;;;;;;;;;5044012;28;20029;-81
2021/01/13 04:00:46;;;;;;;1999.90;999.90;;;;;;;;;;5050459;28;20033;-80
2021/01/13 04:03:11;;;;;;;1999.90;999.90;;;;;;;;;;5042915;28;20060;-81
2021/01/13 04:05:40;;;;;;;1999.90;999.90;;;;;;;;;;5044196;28;20060;-81
2021/01/13 04:08:05;;;;;;;1999.90;999.90;;;;;;;;;;5035978;28;20501;-81
2021/01/13 04:10:31;;;;;;;1999.90;999.90;;;;;;;;;;5049613;28;20013;-81
2021/01/13 04:12:57;;;;;;;1999.90;999.90;;;;;;;;;;5048769;28;20059;-83
2021/01/13 04:15:36;;;;;;;1999.90;999.90;;;;;;;;;;5040381;28;20362;-81
2021/01/13 04:18:06;;;;;;;1999.90;999.90;;;;;;;;;;5049484;28;20024;-81
2021/01/13 04:20:32;;;;;;;1999.90;999.90;;;;;;;;;;5042163;28;20028;-81
2021/01/13 04:22:57;;;;;;;1999.90;999.90;;;;;;;;;;5038161;28;20021;-81
2021/01/13 04:25:23;;;;;;;1999.90;999.90;;;;;;;;;;5040470;28;20029;-81
2021/01/13 04:27:49;;;;;;;1999.90;999.90;;;;;;;;;;5047802;28;20030;-81
2021/01/13 04:30:15;;;;;;;1999.90;999.90;;;;;;;;;;5035199;28;20116;-81
2021/01/13 04:32:40;;;;;;;1999.90;999.90;;;;;;;;;;5039076;28;20156;-81
2021/01/13 04:35:08;;;;;;;1999.90;999.90;;;;;;;;;;5044791;28;20028;-81
2021/01/13 04:37:34;;;;;;;1999.90;999.90;;;;;;;;;;5039749;28;20021;-82
2021/01/13 04:40:02;;;;;;;1999.90;999.90;;;;;;;;;;5047908;28;20029;-81
2021/01/13 04:42:43;;;;;;;1999.90;999.90;;;;;;;;;;5042695;28;20049;-82
2021/01/13 04:45:08;;;;;;;1999.90;999.90;;;;;;;;;;5020584;28;20623;-81
2021/01/13 04:47:50;;;;;;;1999.90;999.90;;;;;;;;;;5037920;28;20026;-81
2021/01/13 04:50:16;;;;;;;1999.90;999.90;;;;;;;;;;5037574;28;20104;-82
2021/01/13 04:52:42;;;;;;;1999.90;999.90;;;;;;;;;;5048590;28;20044;-81
2021/01/13 04:55:13;;;;;;;1999.90;999.90;;;;;;;;;;5044857;28;20045;-81
2021/01/13 04:57:57;;;;;;;1999.90;999.90;;;;;;;;;;5031670;28;20041;-81
2021/01/13 05:00:35;;;;;;;1999.90;999.90;;;;;;;;;;5038186;28;20033;-81
2021/01/13 05:03:19;;;;;;;1999.90;999.90;;;;;;;;;;5048939;28;20512;-81
2021/01/13 05:05:47;;;;;;;1999.90;999.90;;;;;;;;;;5042597;28;20175;-81
2021/01/13 05:08:18;;;;;;;1999.90;999.90;;;;;;;;;;5048227;28;20096;-81
2021/01/13 05:10:46;;;;;;;1999.90;999.90;;;;;;;;;;5043961;28;20029;-81
2021/01/13 05:13:16;;;;;;;1999.90;999.90;;;;;;;;;;5040575;28;20025;-82
2021/01/13 05:15:51;;;;;;;1999.90;999.90;;;;;;;;;;5046778;28;20036;-81
2021/01/13 05:18:23;;;;;;;1999.90;999.90;;;;;;;;;;5028525;28;20025;-81
2021/01/13 05:20:55;;;;;;;1999.90;999.90;;;;;;;;;;5028925;28;20108;-81
2021/01/13 05:23:21;;;;;;;1999.90;999.90;;;;;;;;;;5037067;28;20026;-81
2021/01/13 05:25:50;;;;;;;1999.90;999.90;;;;;;;;;;5042285;28;20477;-81
2021/01/13 05:28:25;;;;;;;1999.90;999.90;;;;;;;;;;5042702;28;20036;-82
2021/01/13 05:30:54;;;;;;;1999.90;999.90;;;;;;;;;;5037726;28;20022;-81
2021/01/13 05:33:24;;;;;;;1999.90;999.90;;;;;;;;;;5036814;28;20113;-82
2021/01/13 05:35:51;;;;;;;1999.90;999.90;;;;;;;;;;5044899;28;20037;-82
2021/01/13 05:38:17;;;;;;;1999.90;999.90;;;;;;;;;;5040099;28;20032;-81
2021/01/13 05:40:44;;;;;;;1999.90;999.90;;;;;;;;;;5044280;28;20045;-81
2021/01/13 05:43:10;;;;;;;1999.90;999.90;;;;;;;;;;5037191;28;20687;-81
2021/01/13 05:45:36;;;;;;;1999.90;999.90;;;;;;;;;;5045181;28;20111;-81
2021/01/13 05:48:02;;;;;;;1999.90;999.90;;;;;;;;;;5039428;28;20060;-81
2021/01/13 05:50:28;;;;;;;1999.90;999.90;;;;;;;;;;5036667;28;20036;-81
2021/01/13 05:52:54;;;;;;;1999.90;999.90;;;;;;;;;;5040276;28;20049;-81
2021/01/13 05:55:20;;;;;;;1999.90;999.90;;;;;;;;;;5043700;28;20029;-82
2021/01/13 05:57:53;;;;;;;1999.90;999.90;;;;;;;;;;5045679;28;20108;-81
2021/01/13 06:00:19;;;;;;;1999.90;999.90;;;;;;;;;;5044020;28;20043;-84
2021/01/13 06:02:46;;;;;;;1999.90;999.90;;;;;;;;;;5043642;28;20096;-84
2021/01/13 06:05:12;;;;;;;1999.90;999.90;;;;;;;;;;5036959;28;20107;-86
2021/01/13 06:07:40;;;;;;;1999.90;999.90;;;;;;;;;;5045506;28;20017;-84
2021/01/13 06:10:06;;;;;;;1999.90;999.90;;;;;;;;;;5046327;28;20044;-84
2021/01/13 06:12:33;;;;;;;1999.90;999.90;;;;;;;;;;5049054;28;20021;-85
2021/01/13 06:14:58;;;;;;;1999.90;999.90;;;;;;;;;;5024686;28;20592;-85
2021/01/13 06:17:25;;;;;;;1999.90;999.90;;;;;;;;;;5037135;28;20029;-85
2021/01/13 06:19:52;;;;;;;1999.90;999.90;;;;;;;;;;5037619;28;20053;-85
2021/01/13 06:22:17;;;;;;;1999.90;999.90;;;;;;;;;;5039909;28;20116;-82
2021/01/13 06:24:43;;;;;;;1999.90;999.90;;;;;;;;;;5041405;28;20118;-84
2021/01/13 06:27:11;;;;;;;1999.90;999.90;;;;;;;;;;5045411;28;20476;-84
2021/01/13 06:29:47;;;;;;;1999.90;999.90;;;;;;;;;;5045271;28;20037;-84
2021/01/13 06:32:18;;;;;;;1999.90;999.90;;;;;;;;;;5043040;28;20033;-85
2021/01/13 06:34:54;;;;;;;1999.90;999.90;;;;;;;;;;5042938;28;20072;-82
2021/01/13 06:37:28;;;;;;;1999.90;999.90;;;;;;;;;;5043723;28;20060;-81
2021/01/13 06:39:56;;;;;;;1999.90;999.90;;;;;;;;;;5047403;28;20045;-82
2021/01/13 06:42:27;;;;;;;1999.90;999.90;;;;;;;;;;5045300;28;20024;-82
2021/01/13 06:44:54;;;;;;;1999.90;999.90;;;;;;;;;;5046361;28;20583;-87
2021/01/13 06:47:20;;;;;;;1999.90;999.90;;;;;;;;;;5042835;28;20022;-87
2021/01/13 06:49:49;;;;;;;1999.90;999.90;;;;;;;;;;5049886;28;20071;-84
2021/01/13 06:52:27;;;;;;;1999.90;999.90;;;;;;;;;;5043982;28;20027;-86
2021/01/13 06:54:52;;;;;;;1999.90;999.90;;;;;;;;;;5043803;28;20129;-84
2021/01/13 06:57:24;;;;;;;1999.90;999.90;;;;;;;;;;5039337;28;20132;-86
2021/01/13 06:59:50;;;;;;;1999.90;999.90;;;;;;;;;;5045936;28;20033;-84
2021/01/13 07:02:15;;;;;;;1999.90;999.90;;;;;;;;;;5044599;28;20413;-79
2021/01/13 07:04:45;;;;;;;1999.90;999.90;;;;;;;;;;5047146;28;20027;-86
2021/01/13 07:07:14;;;;;;;1999.90;999.90;;;;;;;;;;5033245;28;20034;-84
2021/01/13 07:09:42;;;;;;;1999.90;999.90;;;;;;;;;;5039573;28;20056;-86
2021/01/13 07:12:09;;;;;;;1999.90;999.90;;;;;;;;;;5049773;28;20025;-85
2021/01/13 07:14:39;;;;;;;1999.90;999.90;;;;;;;;;;5049428;28;20056;-85
2021/01/13 07:17:06;;;;;;;1999.90;999.90;;;;;;;;;;5042440;28;20051;-85
2021/01/13 07:19:33;;;;;;;1999.90;999.90;;;;;;;;;;5046127;28;20022;-88
2021/01/13 07:21:59;;;;;;;1999.90;999.90;;;;;;;;;;5044280;28;20026;-86
2021/01/13 07:24:26;;;;;;;1999.90;999.90;;;;;;;;;;5044796;28;20051;-86
2021/01/13 07:26:52;;;;;;;1999.90;999.90;;;;;;;;;;5044924;28;20026;-85
2021/01/13 07:29:19;;;;;;;1999.90;999.90;;;;;;;;;;5039352;28;20694;-86
2021/01/13 07:31:45;;;;;;;1999.90;999.90;;;;;;;;;;5043999;28;20025;-86
2021/01/13 07:34:12;;;;;;;1999.90;999.90;;;;;;;;;;5028642;28;20025;-87
2021/01/13 07:36:40;;;;;;;1999.90;999.90;;;;;;;;;;5052905;28;20082;-86
2021/01/13 07:39:07;;;;;;;1999.90;999.90;;;;;;;;;;5043820;28;20036;-86
2021/01/13 07:41:35;;;;;;;1999.90;999.90;;;;;;;;;;5049957;28;20398;-88
2021/01/13 07:44:16;;;;;;;1999.90;999.90;;;;;;;;;;5047966;28;20037;-85
2021/01/13 07:47:00;;;;;;;1999.90;999.90;;;;;;;;;;5051894;28;20025;-86
2021/01/13 07:49:36;;;;;;;1999.90;999.90;;;;;;;;;;5050425;28;20509;-85
2021/01/13 07:52:07;;;;;;;1999.90;999.90;;;;;;;;;;5045903;28;20025;-85
2021/01/13 07:54:34;;;;;;;1999.90;999.90;;;;;;;;;;5046307;28;20056;-84
2021/01/13 07:57:01;;;;;;;1999.90;999.90;;;;;;;;;;5046007;28;20387;-86
2021/01/13 07:59:30;;;;;;;1999.90;999.90;;;;;;;;;;5047871;28;20044;-86
2021/01/13 08:02:15;;;;;;;1999.90;999.90;;;;;;;;;;5034171;28;20079;-87
2021/01/13 08:05:00;;;;;;;1999.90;999.90;;;;;;;;;;5001891;28;20033;-87
2021/01/13 08:07:38;;;;;;;1999.90;999.90;;;;;;;;;;5060209;28;20024;-83
2021/01/13 08:10:05;;;;;;;1999.90;999.90;;;;;;;;;;5060093;28;20080;-84
2021/01/13 08:13:03;;;;;;;1999.90;999.90;;;;;;;;;;5063304;28;20503;-85
2021/01/13 08:15:28;;;;;;;1999.90;999.90;;;;;;;;;;5019438;28;20037;-85
2021/01/13 08:18:01;;;;;;;1999.90;999.90;;;;;;;;;;5037244;28;20066;-86
2021/01/13 08:20:33;;;;;;;1999.90;999.90;;;;;;;;;;5045682;28;20072;-86
2021/01/13 08:22:59;;;;;;;1999.90;999.90;;;;;;;;;;5047655;28;20018;-86
2021/01/13 08:25:28;;;;;;;1999.90;999.90;;;;;;;;;;5034603;28;20025;-85
2021/01/13 08:27:57;;;;;;;1999.90;999.90;;;;;;;;;;5043368;28;20077;-85
2021/01/13 08:30:27;;;;;;;1999.90;999.90;;;;;;;;;;5045301;28;20226;-85
2021/01/13 08:32:54;;;;;;;1999.90;999.90;;;;;;;;;;5021059;28;20034;-86
2021/01/13 08:35:28;;;;;;;1999.90;999.90;;;;;;;;;;5039641;28;20017;-87
2021/01/13 08:38:04;;;;;;;1999.90;999.90;;;;;;;;;;5042480;28;20033;-87
2021/01/13 08:40:31;;;;;;;1999.90;999.90;;;;;;;;;;5025585;28;20032;-86
2021/01/13 08:43:24;;;;;;;1999.90;999.90;;;;;;;;;;5050114;28;20013;-88
2021/01/13 08:45:51;;;;;;;1999.90;999.90;;;;;;;;;;5027930;28;20405;-87
2021/01/13 08:48:18;;;;;;;1999.90;999.90;;;;;;;;;;5034039;28;20417;-86
2021/01/13 08:51:06;;;;;;;1999.90;999.90;;;;;;;;;;5043674;28;20049;-87
2021/01/13 08:53:32;;;;;;;1999.90;999.90;;;;;;;;;;5042330;28;20056;-86
2021/01/13 08:55:57;;;;;;;1999.90;999.90;;;;;;;;;;5048551;28;20134;-86
2021/01/13 08:58:29;;;;;;;1999.90;999.90;;;;;;;;;;5049914;28;20033;-86
2021/01/13 09:01:05;;;;;;;1999.90;999.90;;;;;;;;;;5040150;28;20029;-88
2021/01/13 09:03:30;;;;;;;;;;;;;;;;;;5043384;28;20083;-84
2021/01/13 09:05:57;;;;;;;1999.90;999.90;;;;;;;;;;5050366;28;20381;-87
2021/01/13 09:08:32;;;;;;;1999.90;999.90;;;;;;;;;;5044427;28;20133;-89
2021/01/13 09:10:57;;;;;;;1999.90;999.90;;;;;;;;;;5028243;28;20025;-86
2021/01/13 09:13:32;;;;;;;1999.90;999.90;;;;;;;;;;5038172;28;20109;-88
2021/01/13 09:15:58;;;;;;;1999.90;999.90;;;;;;;;;;5043877;28;20032;-88
2021/01/13 09:18:24;;;;;;;1999.90;999.90;;;;;;;;;;5039062;28;20029;-85
2021/01/13 09:20:50;;;;;;;1999.90;999.90;;;;;;;;;;5044724;28;20512;-84
2021/01/13 09:23:22;;;;;;;1999.90;999.90;;;;;;;;;;5043067;28;20397;-85
2021/01/13 09:25:51;;;;;;;1999.90;999.90;;;;;;;;;;5045897;28;20029;-84
2021/01/13 09:28:18;;;;;;;1999.90;999.90;;;;;;;;;;5045088;28;20074;-85
2021/01/13 09:30:43;;;;;;;1999.90;999.90;;;;;;;;;;5041891;28;20044;-84
2021/01/13 09:33:12;;;;;;;1999.90;999.90;;;;;;;;;;5030287;28;20023;-83
2021/01/13 09:35:41;;;;;;;1999.90;999.90;;;;;;;;;;5047511;28;20088;-83
2021/01/13 09:38:13;;;;;;;1999.90;999.90;;;;;;;;;;5041124;28;20025;-80
2021/01/13 09:40:51;;;;;;;1999.90;999.90;;;;;;;;;;5044235;28;20021;-85
2021/01/13 09:43:27;;;;;;;1999.90;999.90;;;;;;;;;;5046660;28;20603;-86
2021/01/13 09:45:53;;;;;;;1999.90;999.90;;;;;;;;;;5047492;28;20528;-84
2021/01/13 09:48:19;;;;;;;1999.90;999.90;;;;;;;;;;5041956;28;20034;-82
2021/01/13 09:50:45;;;;;;;1999.90;999.90;;;;;;;;;;5047948;28;20024;-82
2021/01/13 09:53:13;;;;;;;1999.90;999.90;;;;;;;;;;5055928;28;20048;-81
2021/01/13 09:55:39;;;;;;;1999.90;999.90;;;;;;;;;;5046010;28;20040;-81
2021/01/13 09:58:27;;;;;;;1999.90;999.90;;;;;;;;;;5050049;28;20044;-81
2021/01/13 10:00:55;;;;;;;1999.90;999.90;;;;;;;;;;5046878;28;20021;-82
2021/01/13 10:03:28;;;;;;;1999.90;999.90;;;;;;;;;;5029672;28;20020;-82
2021/01/13 10:05:55;;;;;;;1999.90;999.90;;;;;;;;;;5029785;28;20497;-82
2021/01/13 10:08:28;;;;;;;1999.90;999.90;;;;;;;;;;5045574;28;20083;-82
2021/01/13 10:10:55;;;;;;;1999.90;999.90;;;;;;;;;;5044125;28;20500;-89
2021/01/13 10:13:21;;;;;;;1999.90;999.90;;;;;;;;;;5042231;28;20025;-83
2021/01/13 10:15:48;;;;;;;1999.90;999.90;;;;;;;;;;5048013;28;20121;-88
2021/01/13 10:18:13;;;;;;;1999.90;999.90;;;;;;;;;;5048306;28;20079;-89
2021/01/13 10:20:39;;;;;;;1999.90;999.90;;;;;;;;;;5029936;28;20025;-86
2021/01/13 10:23:06;;;;;;;1999.90;999.90;;;;;;;;;;5042668;28;20025;-86
2021/01/13 10:25:34;;;;;;;1999.90;999.90;;;;;;;;;;5048734;28;20044;-83
2021/01/13 10:28:01;;;;;;;1999.90;999.90;;;;;;;;;;5047557;28;20021;-84
2021/01/13 10:30:27;;;;;;;1999.90;999.90;;;;;;;;;;5032834;28;20090;-82
2021/01/13 10:32:56;;;;;;;1999.90;999.90;;;;;;;;;;5043878;28;20022;-87
2021/01/13 10:35:22;;;;;;;1999.90;999.90;;;;;;;;;;5008205;28;20490;-84
2021/01/13 10:37:50;;;;;;;1999.90;999.90;;;;;;;;;;5043887;28;20016;-84
2021/01/13 10:40:18;;;;;;;1999.90;999.90;;;;;;;;;;5044298;28;20445;-83
2021/01/13 10:42:43;;;;;;;1999.90;999.90;;;;;;;;;;5044469;28;20021;-82
2021/01/13 10:45:13;;;;;;;1999.90;999.90;;;;;;;;;;5039707;28;20080;-85
2021/01/13 10:47:44;;;;;;;1999.90;999.90;;;;;;;;;;5040415;28;20040;-84
2021/01/13 10:50:10;;;;;;;1999.90;999.90;;;;;;;;;;5015817;28;20037;-85
2021/01/13 10:52:38;;;;;;;1999.90;999.90;;;;;;;;;;5048658;28;20724;-85
2021/01/13 10:55:05;;;;;;;1999.90;999.90;;;;;;;;;;5039214;28;20030;-88
2021/01/13 10:57:31;;;;;;;1999.90;999.90;;;;;;;;;;5047126;28;20108;-88
2021/01/13 11:00:06;;;;;;;1999.90;999.90;;;;;;;;;;5045007;28;20683;-87
2021/01/13 11:02:32;;;;;;;1999.90;999.90;;;;;;;;;;5042784;28;20492;-84
2021/01/13 11:05:00;;;;;;;1999.90;999.90;;;;;;;;;;5039319;28;20022;-88
2021/01/13 11:07:36;;;;;;;1999.90;999.90;;;;;;;;;;5041037;28;20133;-84
2021/01/13 11:10:03;;;;;;;1999.90;999.90;;;;;;;;;;5043869;28;20029;-89
2021/01/13 11:12:28;;;;;;;1999.90;999.90;;;;;;;;;;5029063;28;20112;-86
2021/01/13 11:14:54;;;;;;;1999.90;999.90;;;;;;;;;;5030624;28;20160;-86
2021/01/13 11:17:23;;;;;;;1999.90;999.90;;;;;;;;;;5047710;28;20096;-86
2021/01/13 11:19:52;;;;;;;1999.90;999.90;;;;;;;;;;5056715;28;20029;-85
2021/01/13 11:22:17;;;;;;;1999.90;999.90;;;;;;;;;;5043325;28;20076;-87
2021/01/13 11:24:43;;;;;;;1999.90;999.90;;;;;;;;;;5021614;28;20079;-86
2021/01/13 11:27:12;;;;;;;1999.90;999.90;;;;;;;;;;5052594;28;20473;-89
2021/01/13 11:29:39;;;;;;;1999.90;999.90;;;;;;;;;;5033437;28;20052;-87
2021/01/13 11:32:05;;;;;;;1999.90;999.90;;;;;;;;;;5050850;28;20046;-87
2021/01/13 11:34:31;;;;;;;1999.90;999.90;;;;;;;;;;5042804;28;20037;-87
2021/01/13 11:37:16;;;;;;;1999.90;999.90;;;;;;;;;;5044985;28;20059;-85
2021/01/13 11:39:43;;;;;;;1999.90;999.90;;;;;;;;;;5040231;28;20033;-85
2021/01/13 11:42:08;;;;;;;1999.90;999.90;;;;;;;;;;5015293;28;20131;-82
2021/01/13 11:44:49;;;;;;;1999.90;999.90;;;;;;;;;;5054810;28;20484;-86
2021/01/13 11:47:19;;;;;;;1999.90;999.90;;;;;;;;;;5066814;28;20052;-86
2021/01/13 11:49:52;;;;;;;1999.90;999.90;;;;;;;;;;5061210;28;20051;-85
2021/01/13 11:52:18;;;;;;;1999.90;999.90;;;;;;;;;;5067981;28;20037;-85
2021/01/13 11:54:47;;;;;;;1999.90;999.90;;;;;;;;;;5060261;28;20029;-76
2021/01/13 11:57:16;;;;;;;1999.90;999.90;;;;;;;;;;5050077;28;20061;-84
2021/01/13 11:59:41;;;;;;;1999.90;999.90;;;;;;;;;;5052013;28;20481;-83
2021/01/13 12:02:12;;;;;;;1999.90;999.90;;;;;;;;;;5046585;28;20041;-83
2021/01/13 12:04:42;;;;;;;1999.90;999.90;;;;;;;;;;5047815;28;20449;-86
2021/01/13 12:07:07;;;;;;;1999.90;999.90;;;;;;;;;;5034064;28;20033;-85
2021/01/13 12:09:35;;;;;;;1999.90;999.90;;;;;;;;;;5046035;28;20031;-84
2021/01/13 12:12:00;;;;;;;1999.90;999.90;;;;;;;;;;5024138;28;20116;-86
2021/01/13 12:14:26;;;;;;;1999.90;999.90;;;;;;;;;;5036940;28;20120;-85
2021/01/13 12:17:01;;;;;;;1999.90;999.90;;;;;;;;;;5040707;28;20079;-86
2021/01/13 12:19:40;;;;;;;1999.90;999.90;;;;;;;;;;5039759;28;20052;-85
2021/01/13 12:22:05;;;;;;;1999.90;999.90;;;;;;;;;;5044965;28;20084;-84
2021/01/13 12:24:42;;;;;;;1999.90;999.90;;;;;;;;;;5039237;28;20104;-87
2021/01/13 12:27:23;;;;;;;1999.90;999.90;;;;;;;;;;5045345;28;20538;-85
2021/01/13 12:30:07;;;;;;;1999.90;999.90;;;;;;;;;;5043434;28;20509;-87
2021/01/13 12:32:33;;;;;;;1999.90;999.90;;;;;;;;;;5023088;28;20017;-86
2021/01/13 12:34:58;;;;;;;1999.90;999.90;;;;;;;;;;5044488;28;20397;-85
2021/01/13 12:37:24;;;;;;;1999.90;999.90;;;;;;;;;;5045859;28;20024;-86
2021/01/13 12:39:55;;;;;;;1999.90;999.90;;;;;;;;;;5046062;28;20093;-86
2021/01/13 12:42:20;;;;;;;1999.90;999.90;;;;;;;;;;5049017;28;20543;-86
2021/01/13 12:44:45;;;;;;;1999.90;999.90;;;;;;;;;;5049428;28;20104;-86
2021/01/13 12:47:11;;;;;;;1999.90;999.90;;;;;;;;;;5049144;28;20056;-87
2021/01/13 12:49:37;;;;;;;1999.90;999.90;;;;;;;;;;5042687;28;20039;-86
2021/01/13 12:52:02;;;;;;;1999.90;999.90;;;;;;;;;;5021600;28;20401;-88
2021/01/13 12:54:29;;;;;;;1999.90;999.90;;;;;;;;;;5041165;28;20025;-86
2021/01/13 12:56:55;;;;;;;1999.90;999.90;;;;;;;;;;5038763;28;20063;-87
2021/01/13 12:59:21;;;;;;;1999.90;999.90;;;;;;;;;;5042049;28;20053;-86
2021/01/13 13:01:47;;;;;;;1999.90;999.90;;;;;;;;;;5026120;28;20036;-86
2021/01/13 13:04:13;;;;;;;1999.90;999.90;;;;;;;;;;5045028;28;20026;-85
2021/01/13 13:06:39;;;;;;;1999.90;999.90;;;;;;;;;;5041483;28;20020;-84
2021/01/13 13:09:05;;;;;;;1999.90;999.90;;;;;;;;;;5040771;28;20570;-87
2021/01/13 13:11:31;;;;;;;1999.90;999.90;;;;;;;;;;5033085;28;20029;-85
2021/01/13 13:13:57;;;;;;;1999.90;999.90;;;;;;;;;;5036350;28;20428;-83
2021/01/13 13:16:23;;;;;;;1999.90;999.90;;;;;;;;;;5045993;28;20036;-83
2021/01/13 13:18:50;;;;;;;1999.90;999.90;;;;;;;;;;5043270;28;20017;-84
2021/01/13 13:21:15;;;;;;;1999.90;999.90;;;;;;;;;;5039897;28;20052;-83
2021/01/13 13:23:41;;;;;;;1999.90;999.90;;;;;;;;;;5042336;28;20021;-84
2021/01/13 13:26:07;;;;;;;1999.90;999.90;;;;;;;;;;5041153;28;20092;-84
2021/01/13 13:28:32;;;;;;;1999.90;999.90;;;;;;;;;;5037083;28;20079;-83
2021/01/13 13:30:58;;;;;;;1999.90;999.90;;;;;;;;;;5048215;28;20403;-82
2021/01/13 13:33:23;;;;;;;1999.90;999.90;;;;;;;;;;5041227;28;20025;-82
2021/01/13 13:35:49;;;;;;;1999.90;999.90;;;;;;;;;;5040684;28;20033;-84
2021/01/13 13:38:14;;;;;;;1999.90;999.90;;;;;;;;;;5038181;28;20033;-81
2021/01/13 13:40:40;;;;;;;1999.90;999.90;;;;;;;;;;5040557;28;20017;-83
2021/01/13 13:43:05;;;;;;;1999.90;999.90;;;;;;;;;;5039382;28;20083;-81
2021/01/13 13:45:31;;;;;;;1999.90;999.90;;;;;;;;;;5039727;28;20025;-81
2021/01/13 13:47:56;;;;;;;1999.90;999.90;;;;;;;;;;5040670;28;20132;-85
2021/01/13 13:50:21;;;;;;;1999.90;999.90;;;;;;;;;;5042928;28;20032;-83